sensor_id;sensor_type;location;lat;lon;timestamp;temperature;humidity
76305;DHT22;65111;50.536;19.204;2023-04-12T00:01:42;7.20;86.10
76305;DHT22;65111;50.536;19.204;2023-04-12T00:04:08;7.20;86.00
76305;DHT22;65111;50.536;19.204;2023-04-12T00:06:35;7.30;86.10
76305;DHT22;65111;50.536;19.204;2023-04-12T00:09:01;7.20;86.00
76305;DHT22;65111;50.536;19.204;2023-04-12T00:11:30;7.20;86.00
76305;DHT22;65111;50.536;19.204;2023-04-12T00:13:56;7.20;86.10
76305;DHT22;65111;50.536;19.204;2023-04-12T00:16:22;7.30;86.00
76305;DHT22;65111;50.536;19.204;2023-04-12T00:18:49;7.10;85.90
76305;DHT22;65111;50.536;19.204;2023-04-12T00:21:16;7.20;86.00
76305;DHT22;65111;50.536;19.204;2023-04-12T00:23:47;7.20;86.00
76305;DHT22;65111;50.536;19.204;2023-04-12T00:26:14;7.10;86.10
76305;DHT22;65111;50.536;19.204;2023-04-12T00:28:41;7.20;86.10
76305;DHT22;65111;50.536;19.204;2023-04-12T00:31:07;7.20;86.00
76305;DHT22;65111;50.536;19.204;2023-04-12T00:33:34;7.00;86.10
76305;DHT22;65111;50.536;19.204;2023-04-12T00:36:00;7.10;86.00
76305;DHT22;65111;50.536;19.204;2023-04-12T00:38:26;7.10;86.10
76305;DHT22;65111;50.536;19.204;2023-04-12T00:40:52;7.10;86.00
76305;DHT22;65111;50.536;19.204;2023-04-12T00:43:19;7.10;86.00
76305;DHT22;65111;50.536;19.204;2023-04-12T00:45:46;7.10;85.90
76305;DHT22;65111;50.536;19.204;2023-04-12T00:48:12;7.10;86.00
76305;DHT22;65111;50.536;19.204;2023-04-12T00:50:39;7.10;85.90
76305;DHT22;65111;50.536;19.204;2023-04-12T00:53:06;7.10;85.80
76305;DHT22;65111;50.536;19.204;2023-04-12T00:55:35;7.10;85.70
76305;DHT22;65111;50.536;19.204;2023-04-12T00:58:02;6.90;85.80
76305;DHT22;65111;50.536;19.204;2023-04-12T01:00:28;7.00;85.80
76305;DHT22;65111;50.536;19.204;2023-04-12T01:02:54;6.80;85.70
76305;DHT22;65111;50.536;19.204;2023-04-12T01:05:22;7.00;85.90
76305;DHT22;65111;50.536;19.204;2023-04-12T01:08:21;6.80;85.70
76305;DHT22;65111;50.536;19.204;2023-04-12T01:10:58;6.90;85.90
76305;DHT22;65111;50.536;19.204;2023-04-12T01:13:38;6.90;85.90
76305;DHT22;65111;50.536;19.204;2023-04-12T01:16:11;6.80;85.80
76305;DHT22;65111;50.536;19.204;2023-04-12T01:18:40;6.90;86.00
76305;DHT22;65111;50.536;19.204;2023-04-12T01:21:09;6.80;85.90
76305;DHT22;65111;50.536;19.204;2023-04-12T01:26:43;6.80;85.90
76305;DHT22;65111;50.536;19.204;2023-04-12T01:29:19;6.90;85.80
76305;DHT22;65111;50.536;19.204;2023-04-12T01:32:00;6.80;86.00
76305;DHT22;65111;50.536;19.204;2023-04-12T01:34:31;6.90;86.00
76305;DHT22;65111;50.536;19.204;2023-04-12T01:37:00;6.70;86.00
76305;DHT22;65111;50.536;19.204;2023-04-12T01:39:28;6.80;86.00
76305;DHT22;65111;50.536;19.204;2023-04-12T01:41:55;6.90;86.00
76305;DHT22;65111;50.536;19.204;2023-04-12T01:44:21;6.80;86.00
76305;DHT22;65111;50.536;19.204;2023-04-12T01:46:48;6.80;86.00
76305;DHT22;65111;50.536;19.204;2023-04-12T01:49:18;7.00;86.00
76305;DHT22;65111;50.536;19.204;2023-04-12T01:51:51;6.80;85.90
76305;DHT22;65111;50.536;19.204;2023-04-12T01:54:36;6.80;86.00
76305;DHT22;65111;50.536;19.204;2023-04-12T01:57:04;6.80;85.90
76305;DHT22;65111;50.536;19.204;2023-04-12T01:59:43;6.90;86.10
76305;DHT22;65111;50.536;19.204;2023-04-12T02:02:11;6.90;86.10
76305;DHT22;65111;50.536;19.204;2023-04-12T02:04:38;6.70;86.10
76305;DHT22;65111;50.536;19.204;2023-04-12T02:07:05;6.90;86.10
76305;DHT22;65111;50.536;19.204;2023-04-12T02:09:38;6.80;86.10
76305;DHT22;65111;50.536;19.204;2023-04-12T02:12:05;6.80;86.10
76305;DHT22;65111;50.536;19.204;2023-04-12T02:14:31;6.80;86.10
76305;DHT22;65111;50.536;19.204;2023-04-12T02:16:57;6.80;86.10
76305;DHT22;65111;50.536;19.204;2023-04-12T02:19:24;6.80;86.00
76305;DHT22;65111;50.536;19.204;2023-04-12T02:21:50;6.80;86.00
76305;DHT22;65111;50.536;19.204;2023-04-12T02:24:17;6.80;86.00
76305;DHT22;65111;50.536;19.204;2023-04-12T02:26:42;6.90;86.00
76305;DHT22;65111;50.536;19.204;2023-04-12T02:29:09;6.70;86.00
76305;DHT22;65111;50.536;19.204;2023-04-12T02:31:36;6.80;86.00
76305;DHT22;65111;50.536;19.204;2023-04-12T02:34:04;6.70;86.10
76305;DHT22;65111;50.536;19.204;2023-04-12T02:36:30;6.80;86.10
76305;DHT22;65111;50.536;19.204;2023-04-12T02:38:56;6.80;86.10
76305;DHT22;65111;50.536;19.204;2023-04-12T02:41:23;6.60;86.10
76305;DHT22;65111;50.536;19.204;2023-04-12T02:43:50;6.60;86.20
76305;DHT22;65111;50.536;19.204;2023-04-12T02:46:19;6.70;86.20
76305;DHT22;65111;50.536;19.204;2023-04-12T02:48:46;6.50;86.10
76305;DHT22;65111;50.536;19.204;2023-04-12T02:51:13;6.60;86.10
76305;DHT22;65111;50.536;19.204;2023-04-12T02:53:40;6.60;86.10
76305;DHT22;65111;50.536;19.204;2023-04-12T02:56:06;6.70;86.20
76305;DHT22;65111;50.536;19.204;2023-04-12T02:58:33;6.50;86.20
76305;DHT22;65111;50.536;19.204;2023-04-12T03:01:00;6.60;86.30
76305;DHT22;65111;50.536;19.204;2023-04-12T03:03:26;6.50;86.10
76305;DHT22;65111;50.536;19.204;2023-04-12T03:05:56;6.60;86.10
76305;DHT22;65111;50.536;19.204;2023-04-12T03:08:23;6.60;86.10
76305;DHT22;65111;50.536;19.204;2023-04-12T03:10:49;6.40;86.20
76305;DHT22;65111;50.536;19.204;2023-04-12T03:13:15;6.40;86.20
76305;DHT22;65111;50.536;19.204;2023-04-12T03:15:41;6.60;86.10
76305;DHT22;65111;50.536;19.204;2023-04-12T03:18:10;6.50;86.20
76305;DHT22;65111;50.536;19.204;2023-04-12T03:20:37;6.40;86.10
76305;DHT22;65111;50.536;19.204;2023-04-12T03:23:08;6.50;86.10
76305;DHT22;65111;50.536;19.204;2023-04-12T03:25:34;6.60;86.00
76305;DHT22;65111;50.536;19.204;2023-04-12T03:28:01;6.40;86.10
76305;DHT22;65111;50.536;19.204;2023-04-12T03:30:27;6.60;86.10
76305;DHT22;65111;50.536;19.204;2023-04-12T03:32:53;6.60;86.00
76305;DHT22;65111;50.536;19.204;2023-04-12T03:35:20;6.50;86.10
76305;DHT22;65111;50.536;19.204;2023-04-12T03:37:46;6.40;86.20
76305;DHT22;65111;50.536;19.204;2023-04-12T03:40:12;6.40;86.10
76305;DHT22;65111;50.536;19.204;2023-04-12T03:42:38;6.50;86.20
76305;DHT22;65111;50.536;19.204;2023-04-12T03:45:05;6.40;86.20
76305;DHT22;65111;50.536;19.204;2023-04-12T03:47:32;6.20;86.10
76305;DHT22;65111;50.536;19.204;2023-04-12T03:50:05;6.40;86.10
76305;DHT22;65111;50.536;19.204;2023-04-12T03:52:34;6.40;86.20
76305;DHT22;65111;50.536;19.204;2023-04-12T03:55:00;6.40;86.20
76305;DHT22;65111;50.536;19.204;2023-04-12T03:57:26;6.40;86.20
76305;DHT22;65111;50.536;19.204;2023-04-12T03:59:52;6.40;86.10
76305;DHT22;65111;50.536;19.204;2023-04-12T04:02:18;6.30;86.20
76305;DHT22;65111;50.536;19.204;2023-04-12T04:04:45;6.30;86.10
76305;DHT22;65111;50.536;19.204;2023-04-12T04:07:12;6.30;86.10
76305;DHT22;65111;50.536;19.204;2023-04-12T04:09:38;6.30;86.20
76305;DHT22;65111;50.536;19.204;2023-04-12T04:12:04;6.20;86.20
76305;DHT22;65111;50.536;19.204;2023-04-12T04:14:31;6.30;86.20
76305;DHT22;65111;50.536;19.204;2023-04-12T04:16:59;6.20;86.10
76305;DHT22;65111;50.536;19.204;2023-04-12T04:19:25;6.30;86.10
76305;DHT22;65111;50.536;19.204;2023-04-12T04:21:51;6.30;86.20
76305;DHT22;65111;50.536;19.204;2023-04-12T04:24:17;6.30;86.00
76305;DHT22;65111;50.536;19.204;2023-04-12T04:26:43;6.20;86.10
76305;DHT22;65111;50.536;19.204;2023-04-12T04:29:10;6.10;86.10
76305;DHT22;65111;50.536;19.204;2023-04-12T04:31:36;6.20;86.10
76305;DHT22;65111;50.536;19.204;2023-04-12T04:34:03;6.20;86.00
76305;DHT22;65111;50.536;19.204;2023-04-12T04:36:34;6.40;86.10
76305;DHT22;65111;50.536;19.204;2023-04-12T04:39:00;6.40;86.00
76305;DHT22;65111;50.536;19.204;2023-04-12T04:41:29;6.20;85.90
76305;DHT22;65111;50.536;19.204;2023-04-12T04:44:01;6.20;86.00
76305;DHT22;65111;50.536;19.204;2023-04-12T04:46:29;6.30;86.10
76305;DHT22;65111;50.536;19.204;2023-04-12T04:48:55;6.20;86.00
76305;DHT22;65111;50.536;19.204;2023-04-12T04:51:21;6.30;86.00
76305;DHT22;65111;50.536;19.204;2023-04-12T04:53:47;6.40;85.80
76305;DHT22;65111;50.536;19.204;2023-04-12T04:56:13;6.40;85.90
76305;DHT22;65111;50.536;19.204;2023-04-12T04:58:40;6.40;85.80
76305;DHT22;65111;50.536;19.204;2023-04-12T05:01:06;6.40;85.60
76305;DHT22;65111;50.536;19.204;2023-04-12T05:03:32;6.50;85.80
76305;DHT22;65111;50.536;19.204;2023-04-12T05:06:00;6.40;85.60
76305;DHT22;65111;50.536;19.204;2023-04-12T05:08:28;6.50;85.40
76305;DHT22;65111;50.536;19.204;2023-04-12T05:10:57;6.50;85.30
76305;DHT22;65111;50.536;19.204;2023-04-12T05:13:23;6.50;85.40
76305;DHT22;65111;50.536;19.204;2023-04-12T05:15:49;6.50;85.40
76305;DHT22;65111;50.536;19.204;2023-04-12T05:18:16;6.50;85.30
76305;DHT22;65111;50.536;19.204;2023-04-12T05:20:43;6.60;85.40
76305;DHT22;65111;50.536;19.204;2023-04-12T05:23:09;6.70;85.30
76305;DHT22;65111;50.536;19.204;2023-04-12T05:25:35;6.70;85.30
76305;DHT22;65111;50.536;19.204;2023-04-12T05:28:02;6.70;85.10
76305;DHT22;65111;50.536;19.204;2023-04-12T05:30:28;6.70;85.10
76305;DHT22;65111;50.536;19.204;2023-04-12T05:32:54;6.70;85.00
76305;DHT22;65111;50.536;19.204;2023-04-12T05:35:20;7.00;85.00
76305;DHT22;65111;50.536;19.204;2023-04-12T05:37:46;6.90;85.00
76305;DHT22;65111;50.536;19.204;2023-04-12T05:40:12;7.10;84.90
76305;DHT22;65111;50.536;19.204;2023-04-12T05:42:38;7.20;84.80
76305;DHT22;65111;50.536;19.204;2023-04-12T05:45:05;7.30;84.50
76305;DHT22;65111;50.536;19.204;2023-04-12T05:47:31;7.50;84.30
76305;DHT22;65111;50.536;19.204;2023-04-12T05:49:57;7.60;83.80
76305;DHT22;65111;50.536;19.204;2023-04-12T05:52:23;7.50;83.70
76305;DHT22;65111;50.536;19.204;2023-04-12T05:54:51;7.60;83.70
76305;DHT22;65111;50.536;19.204;2023-04-12T05:57:17;7.80;83.60
76305;DHT22;65111;50.536;19.204;2023-04-12T05:59:44;7.70;83.60
76305;DHT22;65111;50.536;19.204;2023-04-12T06:02:10;7.60;83.40
76305;DHT22;65111;50.536;19.204;2023-04-12T06:04:36;7.70;83.20
76305;DHT22;65111;50.536;19.204;2023-04-12T06:07:05;7.80;83.20
76305;DHT22;65111;50.536;19.204;2023-04-12T06:09:32;7.80;83.30
76305;DHT22;65111;50.536;19.204;2023-04-12T06:11:58;7.80;83.30
76305;DHT22;65111;50.536;19.204;2023-04-12T06:14:24;7.90;83.20
76305;DHT22;65111;50.536;19.204;2023-04-12T06:16:50;8.10;83.20
76305;DHT22;65111;50.536;19.204;2023-04-12T06:19:16;8.10;82.80
76305;DHT22;65111;50.536;19.204;2023-04-12T06:21:42;8.20;82.70
76305;DHT22;65111;50.536;19.204;2023-04-12T06:24:09;8.20;82.60
76305;DHT22;65111;50.536;19.204;2023-04-12T06:26:36;8.20;82.30
76305;DHT22;65111;50.536;19.204;2023-04-12T06:29:02;8.20;82.30
76305;DHT22;65111;50.536;19.204;2023-04-12T06:31:28;8.40;82.30
76305;DHT22;65111;50.536;19.204;2023-04-12T06:33:54;8.30;82.40
76305;DHT22;65111;50.536;19.204;2023-04-12T06:36:20;8.60;82.20
76305;DHT22;65111;50.536;19.204;2023-04-12T06:38:47;8.50;82.00
76305;DHT22;65111;50.536;19.204;2023-04-12T06:41:15;8.70;81.90
76305;DHT22;65111;50.536;19.204;2023-04-12T06:43:41;8.80;81.70
76305;DHT22;65111;50.536;19.204;2023-04-12T06:46:07;9.00;81.40
76305;DHT22;65111;50.536;19.204;2023-04-12T06:48:33;9.00;81.30
76305;DHT22;65111;50.536;19.204;2023-04-12T06:50:59;9.00;81.20
76305;DHT22;65111;50.536;19.204;2023-04-12T06:53:26;9.10;81.10
76305;DHT22;65111;50.536;19.204;2023-04-12T06:55:52;9.10;81.00
76305;DHT22;65111;50.536;19.204;2023-04-12T06:58:18;9.10;81.10
76305;DHT22;65111;50.536;19.204;2023-04-12T07:00:44;9.20;81.00
76305;DHT22;65111;50.536;19.204;2023-04-12T07:03:10;9.30;80.70
76305;DHT22;65111;50.536;19.204;2023-04-12T07:05:37;9.30;80.50
76305;DHT22;65111;50.536;19.204;2023-04-12T07:08:04;9.60;80.40
76305;DHT22;65111;50.536;19.204;2023-04-12T07:10:30;9.60;80.20
76305;DHT22;65111;50.536;19.204;2023-04-12T07:12:57;9.80;79.90
76305;DHT22;65111;50.536;19.204;2023-04-12T07:15:28;9.80;79.70
76305;DHT22;65111;50.536;19.204;2023-04-12T07:17:54;9.90;79.70
76305;DHT22;65111;50.536;19.204;2023-04-12T07:20:20;10.10;79.30
76305;DHT22;65111;50.536;19.204;2023-04-12T07:22:46;10.10;79.20
76305;DHT22;65111;50.536;19.204;2023-04-12T07:25:12;10.50;79.00
76305;DHT22;65111;50.536;19.204;2023-04-12T07:27:38;10.80;78.20
76305;DHT22;65111;50.536;19.204;2023-04-12T07:30:05;11.10;77.60
76305;DHT22;65111;50.536;19.204;2023-04-12T07:32:31;11.60;77.30
76305;DHT22;65111;50.536;19.204;2023-04-12T07:34:57;12.40;76.50
76305;DHT22;65111;50.536;19.204;2023-04-12T07:37:23;13.10;74.10
76305;DHT22;65111;50.536;19.204;2023-04-12T07:39:49;14.00;72.60
76305;DHT22;65111;50.536;19.204;2023-04-12T07:42:16;14.80;70.50
76305;DHT22;65111;50.536;19.204;2023-04-12T07:44:42;15.50;68.00
76305;DHT22;65111;50.536;19.204;2023-04-12T07:47:08;16.10;66.50
76305;DHT22;65111;50.536;19.204;2023-04-12T07:49:34;16.30;64.30
76305;DHT22;65111;50.536;19.204;2023-04-12T07:52:00;16.30;64.30
76305;DHT22;65111;50.536;19.204;2023-04-12T07:54:26;16.30;64.10
76305;DHT22;65111;50.536;19.204;2023-04-12T07:57:02;16.20;62.20
76305;DHT22;65111;50.536;19.204;2023-04-12T07:59:29;16.10;63.00
76305;DHT22;65111;50.536;19.204;2023-04-12T08:01:56;16.30;62.30
76305;DHT22;65111;50.536;19.204;2023-04-12T08:04:22;16.50;62.20
76305;DHT22;65111;50.536;19.204;2023-04-12T08:06:48;17.00;61.80
76305;DHT22;65111;50.536;19.204;2023-04-12T08:09:15;17.80;59.60
76305;DHT22;65111;50.536;19.204;2023-04-12T08:11:41;18.30;57.50
76305;DHT22;65111;50.536;19.204;2023-04-12T08:14:07;18.70;57.60
76305;DHT22;65111;50.536;19.204;2023-04-12T08:16:33;19.50;55.50
76305;DHT22;65111;50.536;19.204;2023-04-12T08:18:59;19.70;54.10
76305;DHT22;65111;50.536;19.204;2023-04-12T08:21:25;19.50;54.40
76305;DHT22;65111;50.536;19.204;2023-04-12T08:23:52;19.70;54.40
76305;DHT22;65111;50.536;19.204;2023-04-12T08:26:18;20.00;53.60
76305;DHT22;65111;50.536;19.204;2023-04-12T08:28:44;19.90;52.70
76305;DHT22;65111;50.536;19.204;2023-04-12T08:31:10;19.60;52.90
76305;DHT22;65111;50.536;19.204;2023-04-12T08:33:37;19.30;53.30
76305;DHT22;65111;50.536;19.204;2023-04-12T08:36:04;19.60;54.10
76305;DHT22;65111;50.536;19.204;2023-04-12T08:38:30;21.40;50.80
76305;DHT22;65111;50.536;19.204;2023-04-12T08:40:56;23.40;47.50
76305;DHT22;65111;50.536;19.204;2023-04-12T08:43:27;24.30;44.60
76305;DHT22;65111;50.536;19.204;2023-04-12T08:45:55;23.80;43.60
76305;DHT22;65111;50.536;19.204;2023-04-12T08:48:23;22.80;45.40
76305;DHT22;65111;50.536;19.204;2023-04-12T08:50:51;22.10;46.70
76305;DHT22;65111;50.536;19.204;2023-04-12T08:53:17;22.80;46.90
76305;DHT22;65111;50.536;19.204;2023-04-12T08:55:44;25.40;44.40
76305;DHT22;65111;50.536;19.204;2023-04-12T08:58:13;29.20;39.10
76305;DHT22;65111;50.536;19.204;2023-04-12T09:00:41;33.20;36.10
76305;DHT22;65111;50.536;19.204;2023-04-12T09:03:07;36.30;33.60
76305;DHT22;65111;50.536;19.204;2023-04-12T09:05:35;38.00;32.30
76305;DHT22;65111;50.536;19.204;2023-04-12T09:08:02;38.20;31.90
76305;DHT22;65111;50.536;19.204;2023-04-12T09:10:36;36.40;32.00
76305;DHT22;65111;50.536;19.204;2023-04-12T09:13:03;34.10;33.30
76305;DHT22;65111;50.536;19.204;2023-04-12T09:15:30;32.00;34.80
76305;DHT22;65111;50.536;19.204;2023-04-12T09:18:22;30.30;35.80
76305;DHT22;65111;50.536;19.204;2023-04-12T09:20:48;29.80;36.20
76305;DHT22;65111;50.536;19.204;2023-04-12T09:23:19;30.20;35.90
76305;DHT22;65111;50.536;19.204;2023-04-12T09:25:46;32.60;34.00
76305;DHT22;65111;50.536;19.204;2023-04-12T09:28:22;35.00;32.60
76305;DHT22;65111;50.536;19.204;2023-04-12T09:30:50;38.40;31.10
76305;DHT22;65111;50.536;19.204;2023-04-12T09:33:37;41.80;29.40
76305;DHT22;65111;50.536;19.204;2023-04-12T09:36:05;45.00;27.90
76305;DHT22;65111;50.536;19.204;2023-04-12T09:38:33;47.50;26.60
76305;DHT22;65111;50.536;19.204;2023-04-12T09:41:22;49.70;25.70
76305;DHT22;65111;50.536;19.204;2023-04-12T09:43:50;51.00;25.20
76305;DHT22;65111;50.536;19.204;2023-04-12T09:46:16;51.80;24.70
76305;DHT22;65111;50.536;19.204;2023-04-12T09:48:52;52.30;24.40
76305;DHT22;65111;50.536;19.204;2023-04-12T09:51:29;52.40;24.10
76305;DHT22;65111;50.536;19.204;2023-04-12T09:53:59;49.70;24.30
76305;DHT22;65111;50.536;19.204;2023-04-12T09:56:30;45.40;25.10
76305;DHT22;65111;50.536;19.204;2023-04-12T09:59:04;41.40;26.20
76305;DHT22;65111;50.536;19.204;2023-04-12T10:01:35;37.90;27.30
76305;DHT22;65111;50.536;19.204;2023-04-12T10:04:05;34.90;28.20
76305;DHT22;65111;50.536;19.204;2023-04-12T10:06:32;32.90;29.20
76305;DHT22;65111;50.536;19.204;2023-04-12T10:09:02;31.50;29.90
76305;DHT22;65111;50.536;19.204;2023-04-12T10:11:29;30.40;30.30
76305;DHT22;65111;50.536;19.204;2023-04-12T10:13:55;29.40;30.80
76305;DHT22;65111;50.536;19.204;2023-04-12T10:16:22;28.50;31.20
76305;DHT22;65111;50.536;19.204;2023-04-12T10:18:50;27.70;31.70
76305;DHT22;65111;50.536;19.204;2023-04-12T10:21:17;27.20;32.10
76305;DHT22;65111;50.536;19.204;2023-04-12T10:23:44;26.70;32.30
76305;DHT22;65111;50.536;19.204;2023-04-12T10:26:10;26.20;32.80
76305;DHT22;65111;50.536;19.204;2023-04-12T10:28:36;25.90;33.00
76305;DHT22;65111;50.536;19.204;2023-04-12T10:31:28;26.00;32.90
76305;DHT22;65111;50.536;19.204;2023-04-12T10:33:55;25.80;32.90
76305;DHT22;65111;50.536;19.204;2023-04-12T10:39:16;24.40;33.20
76305;DHT22;65111;50.536;19.204;2023-04-12T10:44:38;24.70;33.50
76305;DHT22;65111;50.536;19.204;2023-04-12T10:47:04;25.80;32.90
76305;DHT22;65111;50.536;19.204;2023-04-12T10:49:31;26.60;32.50
76305;DHT22;65111;50.536;19.204;2023-04-12T10:56:51;29.50;30.90
76305;DHT22;65111;50.536;19.204;2023-04-12T10:59:18;31.70;29.70
76305;DHT22;65111;50.536;19.204;2023-04-12T11:04:31;31.60;29.30
76305;DHT22;65111;50.536;19.204;2023-04-12T11:06:59;30.40;29.90
76305;DHT22;65111;50.536;19.204;2023-04-12T11:12:15;27.30;31.40
76305;DHT22;65111;50.536;19.204;2023-04-12T11:14:50;26.10;32.30
76305;DHT22;65111;50.536;19.204;2023-04-12T11:19:55;24.30;33.10
76305;DHT22;65111;50.536;19.204;2023-04-12T11:22:25;23.60;33.70
76305;DHT22;65111;50.536;19.204;2023-04-12T11:24:54;22.90;34.20
76305;DHT22;65111;50.536;19.204;2023-04-12T11:27:23;22.80;34.60
76305;DHT22;65111;50.536;19.204;2023-04-12T11:29:57;23.00;34.40
76305;DHT22;65111;50.536;19.204;2023-04-12T11:32:25;23.00;34.30
76305;DHT22;65111;50.536;19.204;2023-04-12T11:34:53;22.50;34.80
76305;DHT22;65111;50.536;19.204;2023-04-12T11:37:20;21.80;35.40
76305;DHT22;65111;50.536;19.204;2023-04-12T11:39:50;21.20;35.90
76305;DHT22;65111;50.536;19.204;2023-04-12T11:42:19;21.00;36.10
76305;DHT22;65111;50.536;19.204;2023-04-12T11:44:46;20.40;37.40
76305;DHT22;65111;50.536;19.204;2023-04-12T11:47:17;19.80;37.90
76305;DHT22;65111;50.536;19.204;2023-04-12T11:49:46;19.10;38.40
76305;DHT22;65111;50.536;19.204;2023-04-12T11:52:13;18.50;39.00
76305;DHT22;65111;50.536;19.204;2023-04-12T11:54:49;18.10;40.00
76305;DHT22;65111;50.536;19.204;2023-04-12T11:57:18;18.40;39.60
76305;DHT22;65111;50.536;19.204;2023-04-12T11:59:46;18.70;39.00
76305;DHT22;65111;50.536;19.204;2023-04-12T12:02:15;18.80;38.90
76305;DHT22;65111;50.536;19.204;2023-04-12T12:04:44;18.80;38.80
76305;DHT22;65111;50.536;19.204;2023-04-12T12:07:12;18.60;39.10
76305;DHT22;65111;50.536;19.204;2023-04-12T12:09:39;18.40;39.50
76305;DHT22;65111;50.536;19.204;2023-04-12T12:12:06;18.30;39.80
76305;DHT22;65111;50.536;19.204;2023-04-12T12:14:34;18.30;40.10
76305;DHT22;65111;50.536;19.204;2023-04-12T12:17:09;18.40;40.10
76305;DHT22;65111;50.536;19.204;2023-04-12T12:19:39;18.40;40.20
76305;DHT22;65111;50.536;19.204;2023-04-12T12:24:59;18.70;40.10
76305;DHT22;65111;50.536;19.204;2023-04-12T12:27:39;18.70;39.90
76305;DHT22;65111;50.536;19.204;2023-04-12T12:30:16;18.60;39.80
76305;DHT22;65111;50.536;19.204;2023-04-12T12:32:42;18.70;39.80
76305;DHT22;65111;50.536;19.204;2023-04-12T12:35:11;18.60;39.80
76305;DHT22;65111;50.536;19.204;2023-04-12T12:37:52;18.50;39.80
76305;DHT22;65111;50.536;19.204;2023-04-12T12:40:30;18.10;40.50
76305;DHT22;65111;50.536;19.204;2023-04-12T12:42:59;17.80;40.80
76305;DHT22;65111;50.536;19.204;2023-04-12T12:45:27;17.80;40.90
76305;DHT22;65111;50.536;19.204;2023-04-12T12:47:54;17.80;40.90
76305;DHT22;65111;50.536;19.204;2023-04-12T12:50:25;18.00;40.90
76305;DHT22;65111;50.536;19.204;2023-04-12T12:52:53;17.90;40.80
76305;DHT22;65111;50.536;19.204;2023-04-12T12:55:20;17.80;41.00
76305;DHT22;65111;50.536;19.204;2023-04-12T12:57:48;17.80;40.90
76305;DHT22;65111;50.536;19.204;2023-04-12T13:00:15;17.60;40.90
76305;DHT22;65111;50.536;19.204;2023-04-12T13:02:42;17.50;41.10
76305;DHT22;65111;50.536;19.204;2023-04-12T13:05:10;17.30;41.40
76305;DHT22;65111;50.536;19.204;2023-04-12T13:07:37;17.20;41.40
76305;DHT22;65111;50.536;19.204;2023-04-12T13:10:04;17.00;41.50
76305;DHT22;65111;50.536;19.204;2023-04-12T13:12:30;16.80;41.50
76305;DHT22;65111;50.536;19.204;2023-04-12T13:14:57;16.50;42.00
76305;DHT22;65111;50.536;19.204;2023-04-12T13:17:26;16.30;41.90
76305;DHT22;65111;50.536;19.204;2023-04-12T13:19:53;16.20;42.20
76305;DHT22;65111;50.536;19.204;2023-04-12T13:22:19;16.00;42.30
76305;DHT22;65111;50.536;19.204;2023-04-12T13:24:45;16.00;42.20
76305;DHT22;65111;50.536;19.204;2023-04-12T13:27:12;16.00;42.00
76305;DHT22;65111;50.536;19.204;2023-04-12T13:29:40;16.00;42.30
76305;DHT22;65111;50.536;19.204;2023-04-12T13:32:07;16.00;42.10
76305;DHT22;65111;50.536;19.204;2023-04-12T13:34:34;16.10;42.00
76305;DHT22;65111;50.536;19.204;2023-04-12T13:37:00;16.20;42.30
76305;DHT22;65111;50.536;19.204;2023-04-12T13:39:27;16.40;42.00
76305;DHT22;65111;50.536;19.204;2023-04-12T13:41:53;16.60;41.80
76305;DHT22;65111;50.536;19.204;2023-04-12T13:44:19;16.90;41.40
76305;DHT22;65111;50.536;19.204;2023-04-12T13:46:45;17.10;41.20
76305;DHT22;65111;50.536;19.204;2023-04-12T13:49:11;17.40;41.10
76305;DHT22;65111;50.536;19.204;2023-04-12T13:51:37;17.70;40.80
76305;DHT22;65111;50.536;19.204;2023-04-12T13:54:03;17.80;40.30
76305;DHT22;65111;50.536;19.204;2023-04-12T13:56:30;17.60;40.20
76305;DHT22;65111;50.536;19.204;2023-04-12T13:58:56;17.20;40.50
76305;DHT22;65111;50.536;19.204;2023-04-12T14:01:23;16.70;41.30
76305;DHT22;65111;50.536;19.204;2023-04-12T14:03:50;16.30;41.60
76305;DHT22;65111;50.536;19.204;2023-04-12T14:06:18;15.90;41.60
76305;DHT22;65111;50.536;19.204;2023-04-12T14:08:44;15.80;42.20
76305;DHT22;65111;50.536;19.204;2023-04-12T14:11:11;15.70;42.10
76305;DHT22;65111;50.536;19.204;2023-04-12T14:13:37;15.60;42.30
76305;DHT22;65111;50.536;19.204;2023-04-12T14:16:03;15.70;42.40
76305;DHT22;65111;50.536;19.204;2023-04-12T14:18:29;15.60;41.90
76305;DHT22;65111;50.536;19.204;2023-04-12T14:20:56;15.50;42.40
76305;DHT22;65111;50.536;19.204;2023-04-12T14:23:24;15.20;42.80
76305;DHT22;65111;50.536;19.204;2023-04-12T14:25:51;15.00;42.70
76305;DHT22;65111;50.536;19.204;2023-04-12T14:28:17;14.70;43.10
76305;DHT22;65111;50.536;19.204;2023-04-12T14:30:49;14.50;43.40
76305;DHT22;65111;50.536;19.204;2023-04-12T14:33:16;14.20;43.80
76305;DHT22;65111;50.536;19.204;2023-04-12T14:35:43;14.10;44.00
76305;DHT22;65111;50.536;19.204;2023-04-12T14:38:09;14.10;44.70
76305;DHT22;65111;50.536;19.204;2023-04-12T14:40:35;14.00;44.90
76305;DHT22;65111;50.536;19.204;2023-04-12T14:43:02;14.10;45.40
76305;DHT22;65111;50.536;19.204;2023-04-12T14:45:28;14.20;45.10
76305;DHT22;65111;50.536;19.204;2023-04-12T14:47:54;14.20;45.10
76305;DHT22;65111;50.536;19.204;2023-04-12T14:50:20;14.10;45.20
76305;DHT22;65111;50.536;19.204;2023-04-12T14:52:47;14.00;45.40
76305;DHT22;65111;50.536;19.204;2023-04-12T14:55:14;13.80;45.20
76305;DHT22;65111;50.536;19.204;2023-04-12T14:57:42;13.70;45.20
76305;DHT22;65111;50.536;19.204;2023-04-12T15:00:09;13.70;45.20
76305;DHT22;65111;50.536;19.204;2023-04-12T15:02:40;13.60;45.30
76305;DHT22;65111;50.536;19.204;2023-04-12T15:05:09;13.50;45.50
76305;DHT22;65111;50.536;19.204;2023-04-12T15:07:35;13.60;45.40
76305;DHT22;65111;50.536;19.204;2023-04-12T15:10:01;13.50;45.50
76305;DHT22;65111;50.536;19.204;2023-04-12T15:12:27;13.50;45.30
76305;DHT22;65111;50.536;19.204;2023-04-12T15:14:53;13.50;45.50
76305;DHT22;65111;50.536;19.204;2023-04-12T15:17:22;13.60;45.70
76305;DHT22;65111;50.536;19.204;2023-04-12T15:19:49;13.50;46.00
76305;DHT22;65111;50.536;19.204;2023-04-12T15:22:15;13.50;45.90
76305;DHT22;65111;50.536;19.204;2023-04-12T15:24:41;13.40;46.30
76305;DHT22;65111;50.536;19.204;2023-04-12T15:27:07;13.50;46.60
76305;DHT22;65111;50.536;19.204;2023-04-12T15:29:34;13.40;47.00
76305;DHT22;65111;50.536;19.204;2023-04-12T15:32:00;13.30;47.20
76305;DHT22;65111;50.536;19.204;2023-04-12T15:34:26;13.10;47.10
76305;DHT22;65111;50.536;19.204;2023-04-12T15:36:53;13.00;47.30
76305;DHT22;65111;50.536;19.204;2023-04-12T15:39:19;12.80;47.40
76305;DHT22;65111;50.536;19.204;2023-04-12T15:41:45;12.70;47.80
76305;DHT22;65111;50.536;19.204;2023-04-12T15:44:11;12.60;48.60
76305;DHT22;65111;50.536;19.204;2023-04-12T15:46:41;12.60;48.70
76305;DHT22;65111;50.536;19.204;2023-04-12T15:49:08;12.50;48.90
76305;DHT22;65111;50.536;19.204;2023-04-12T15:51:34;12.40;48.60